createdAt,value
2018-11-10T00:00:23.701Z,0.5
2018-11-10T00:01:14.013Z,0.5
2018-11-10T00:02:04.103Z,0.5
2018-11-10T00:02:54.168Z,0.5
2018-11-10T00:03:44.483Z,0.5
2018-11-10T00:04:33.975Z,0.4
2018-11-10T00:05:24.357Z,0.4
2018-11-10T00:06:14.393Z,0.4
2018-11-10T00:07:04.159Z,0.4
2018-11-10T00:25:16.262Z,0.3
2018-11-10T00:26:06.550Z,0.3
2018-11-10T00:26:56.281Z,0.3
2018-11-10T00:27:46.631Z,0.3
2018-11-10T00:28:36.479Z,0.3
2018-11-10T00:29:26.738Z,0.3
2018-11-10T00:30:16.782Z,0.3
2018-11-10T00:31:06.875Z,0.3
2018-11-10T00:31:56.507Z,0.3
2018-11-10T00:32:46.695Z,0.3
2018-11-10T00:33:36.745Z,0.2
2018-11-10T00:34:27.189Z,0.2
2018-11-10T00:35:17.122Z,0.2
2018-11-10T00:36:07.026Z,0.2
2018-11-10T00:36:57.269Z,0.3
2018-11-10T00:37:46.768Z,0.3
2018-11-10T00:38:36.804Z,0.3
2018-11-10T00:39:26.877Z,0.3
2018-11-10T00:40:17.492Z,0.2
2018-11-10T00:41:06.969Z,0.2
2018-11-10T00:41:57.124Z,0.2
2018-11-10T00:42:47.498Z,0.2
2018-11-10T00:43:37.463Z,0.2
2018-11-10T00:44:27.874Z,0.2
2018-11-10T00:45:17.381Z,0.2
2018-11-10T00:46:07.374Z,0.3
2018-11-10T00:46:57.716Z,0.2
2018-11-10T00:47:47.066Z,0.2
2018-11-10T00:48:38.408Z,0.2
2018-11-10T00:49:28.184Z,0.2
2018-11-10T00:50:17.676Z,0.2
2018-11-10T00:51:08.006Z,0.2
2018-11-10T00:51:58.057Z,0.2
2018-11-10T00:52:48.438Z,0.2
2018-11-10T00:53:38.190Z,0.2
2018-11-10T00:54:27.940Z,0.2
2018-11-10T00:55:18.590Z,0.2
2018-11-10T00:56:08.353Z,0.2
2018-11-10T00:56:58.428Z,0.2
2018-11-10T00:57:48.488Z,0.1
2018-11-10T00:58:38.908Z,0.2
2018-11-10T00:59:28.874Z,0.2
2018-11-10T01:00:18.665Z,0.2
2018-11-10T01:01:08.623Z,0.2
2018-11-10T01:01:59.356Z,0.1
2018-11-10T01:02:49.123Z,0.1
2018-11-10T01:03:38.880Z,0.1
2018-11-10T01:04:29.253Z,0.1
2018-11-10T01:05:19.103Z,0.1
2018-11-10T01:06:08.802Z,0.1
2018-11-10T01:06:58.941Z,0.1
2018-11-10T01:07:49.305Z,0.1
2018-11-10T01:08:39.854Z,0.1
2018-11-10T01:09:29.627Z,0.1
2018-11-10T01:10:19.381Z,0.1
2018-11-10T01:11:09.430Z,0.1
2018-11-10T01:11:59.748Z,0.1
2018-11-10T01:12:50.134Z,0.1
2018-11-10T01:13:39.402Z,0.1
2018-11-10T01:14:29.992Z,0.1
2018-11-10T01:15:20.015Z,0.1
2018-11-10T01:16:10.090Z,0.1
2018-11-10T01:16:59.870Z,0.1
2018-11-10T01:17:49.641Z,0.1
2018-11-10T01:18:40.503Z,0.1
2018-11-10T01:19:30.339Z,0.1
2018-11-10T01:20:20.382Z,0.1
2018-11-10T01:21:09.857Z,0.1
2018-11-10T01:22:00.530Z,0.1
2018-11-10T01:22:50.291Z,0.1
2018-11-10T01:23:40.337Z,0.1
2018-11-10T01:24:30.766Z,0.1
2018-11-10T01:25:21.017Z,0.1
2018-11-10T01:26:10.859Z,0.1
2018-11-10T01:27:01.183Z,0.1
2018-11-10T01:27:51.546Z,0.1
2018-11-10T01:28:41.524Z,0.1
2018-11-10T01:29:31.091Z,0.1
2018-11-10T01:30:21.098Z,0.1
2018-11-10T01:31:10.604Z,0.1
2018-11-10T01:32:01.242Z,0.1
2018-11-10T01:32:51.239Z,0.1
2018-11-10T01:33:40.781Z,0.1
2018-11-10T01:34:31.421Z,0.1
2018-11-10T01:35:20.814Z,0.1
2018-11-10T01:36:11.513Z,0.1
2018-11-10T01:37:01.118Z,0.1
2018-11-10T01:37:51.323Z,0.1
2018-11-10T01:38:41.419Z,0.1
2018-11-10T01:39:32.056Z,0.1
2018-11-10T01:40:21.838Z,0.1
2018-11-10T01:41:11.903Z,0.1
2018-11-10T01:42:02.193Z,0.1
2018-11-10T01:42:51.725Z,0.1
2018-11-10T01:43:41.223Z,0.1
2018-11-10T01:44:31.845Z,0.1
2018-11-10T01:45:22.505Z,0.1
2018-11-10T01:46:12.246Z,0.1
2018-11-10T01:47:01.847Z,0.1
2018-11-10T01:47:52.371Z,0.1
2018-11-10T01:48:42.720Z,0.1
2018-11-10T01:49:32.301Z,0.1
2018-11-10T01:50:22.828Z,0.1
2018-11-10T01:51:12.942Z,0.1
2018-11-10T01:52:02.665Z,0.1
2018-11-10T01:52:52.454Z,0
2018-11-10T01:53:42.813Z,0
2018-11-10T01:54:33.155Z,0
2018-11-10T01:55:22.670Z,0
2018-11-10T01:56:13.252Z,0
2018-11-10T01:57:03.056Z,0
2018-11-10T01:57:53.391Z,0
2018-11-10T01:58:43.176Z,-0.1
2018-11-10T01:59:32.737Z,-0.1
2018-11-10T02:00:23.576Z,0
2018-11-10T02:01:13.665Z,0
2018-11-10T02:02:03.679Z,0
2018-11-10T02:02:53.176Z,0
2018-11-10T02:03:43.517Z,0
2018-11-10T02:04:33.860Z,0
2018-11-10T02:05:23.419Z,0
2018-11-10T02:06:13.217Z,0
2018-11-10T02:07:03.767Z,0
2018-11-10T02:07:53.319Z,0
2018-11-10T02:08:43.606Z,0
2018-11-10T02:09:34.287Z,0
2018-11-10T02:10:23.532Z,0
2018-11-10T02:11:13.494Z,0
2018-11-10T02:12:04.657Z,0
2018-11-10T02:12:54.183Z,0
2018-11-10T02:13:43.966Z,0
2018-11-10T02:14:34.640Z,0
2018-11-10T02:15:24.368Z,-0.1
2018-11-10T02:16:14.536Z,-0.1
2018-11-10T02:17:04.206Z,-0.1
2018-11-10T02:17:54.853Z,-0.1
2018-11-10T02:18:44.879Z,-0.1
2018-11-10T02:19:34.386Z,-0.1
2018-11-10T02:20:24.244Z,-0.1
2018-11-10T02:21:14.785Z,-0.1
2018-11-10T02:22:04.561Z,-0.1
2018-11-10T02:22:54.876Z,-0.1
2018-11-10T02:23:45.241Z,-0.2
2018-11-10T02:24:35.138Z,-0.2
2018-11-10T02:25:25.098Z,-0.2
2018-11-10T02:26:14.840Z,-0.2
2018-11-10T02:27:04.906Z,-0.3
2018-11-10T02:27:55.286Z,-0.3
2018-11-10T02:28:45.594Z,-0.2
2018-11-10T02:29:35.663Z,-0.3
2018-11-10T02:30:25.162Z,-0.3
2018-11-10T02:31:15.223Z,-0.3
2018-11-10T02:32:05.178Z,-0.3
2018-11-10T02:32:55.905Z,-0.3
2018-11-10T02:33:45.703Z,-0.3
2018-11-10T02:34:35.558Z,-0.3
2018-11-10T02:35:25.602Z,-0.3
2018-11-10T02:36:15.290Z,-0.3
2018-11-10T02:37:05.640Z,-0.3
2018-11-10T02:37:55.993Z,-0.3
2018-11-10T02:38:46.680Z,-0.4
2018-11-10T02:39:35.547Z,-0.4
2018-11-10T02:40:26.200Z,-0.4
2018-11-10T02:41:16.521Z,-0.4
2018-11-10T02:42:05.724Z,-0.4
2018-11-10T02:42:56.467Z,-0.4
2018-11-10T02:43:46.978Z,-0.4
2018-11-10T02:44:35.894Z,-0.5
2018-11-10T02:45:26.557Z,-0.4
2018-11-10T02:46:16.295Z,-0.5
2018-11-10T02:47:06.777Z,-0.4
2018-11-10T02:47:56.736Z,-0.4
2018-11-10T02:48:47.099Z,-0.5
2018-11-10T02:49:36.814Z,-0.5
2018-11-10T02:50:26.921Z,-0.4
2018-11-10T02:51:16.668Z,-0.5
2018-11-10T02:52:07.021Z,-0.5
2018-11-10T02:52:57.397Z,-0.5
2018-11-10T02:53:46.844Z,-0.5
2018-11-10T02:54:37.191Z,-0.5
2018-11-10T02:55:27.251Z,-0.6
2018-11-10T02:56:17.352Z,-0.6
2018-11-10T02:57:07.179Z,-0.6
2018-11-10T02:57:57.161Z,-0.6
2018-11-10T02:58:47.208Z,-0.6
2018-11-10T02:59:37.829Z,-0.7
2018-11-10T03:00:27.643Z,-0.7
2018-11-10T03:01:17.184Z,-0.7
2018-11-10T03:02:07.443Z,-0.7
2018-11-10T03:02:57.798Z,-0.8
2018-11-10T03:03:47.843Z,-0.7
2018-11-10T03:04:38.171Z,-0.8
2018-11-10T03:05:27.963Z,-0.8
2018-11-10T03:06:18.328Z,-0.8
2018-11-10T03:07:08.068Z,-0.8
2018-11-10T03:07:57.878Z,-0.8
2018-11-10T03:08:48.218Z,-0.8
2018-11-10T03:09:38.083Z,-0.8
2018-11-10T03:10:28.093Z,-0.8
2018-11-10T03:11:18.398Z,-0.8
2018-11-10T03:12:08.457Z,-0.8
2018-11-10T03:12:57.945Z,-0.8
2018-11-10T03:13:48.610Z,-0.8
2018-11-10T03:14:38.665Z,-0.8
2018-11-10T03:15:28.723Z,-0.8
2018-11-10T03:16:18.668Z,-0.8
2018-11-10T03:17:08.835Z,-0.8
2018-11-10T03:17:58.588Z,-0.8
2018-11-10T03:18:48.633Z,-0.8
2018-11-10T03:19:38.517Z,-0.8
2018-11-10T03:20:29.337Z,-0.8
2018-11-10T03:21:19.377Z,-0.8
2018-11-10T03:22:08.410Z,-0.8
2018-11-10T03:22:59.550Z,-0.8
2018-11-10T03:23:49.294Z,-0.8
2018-11-10T03:24:39.612Z,-0.8
2018-11-10T03:25:29.417Z,-0.9
2018-11-10T03:26:20.022Z,-0.8
2018-11-10T03:27:09.539Z,-0.9
2018-11-10T03:27:59.037Z,-0.9
2018-11-10T03:29:40.035Z,-0.9
2018-11-10T03:36:20.446Z,-1
2018-11-10T03:37:09.979Z,-1
2018-11-10T03:38:00.319Z,-1
2018-11-10T03:38:50.441Z,-1
2018-11-10T03:39:39.859Z,-1
2018-11-10T03:40:29.636Z,-1.1
2018-11-10T03:41:20.004Z,-1.1
2018-11-10T03:42:10.611Z,-1.1
2018-11-10T03:43:00.401Z,-1.1
2018-11-10T03:43:50.733Z,-1.1
2018-11-10T03:44:40.842Z,-1.1
2018-11-10T03:45:30.371Z,-1.1
2018-11-10T03:46:20.443Z,-1.1
2018-11-10T03:47:10.408Z,-1.1
2018-11-10T03:48:01.047Z,-1.1
2018-11-10T03:48:50.607Z,-1.1
2018-11-10T03:49:40.864Z,-1.1
2018-11-10T03:50:30.926Z,-1.2
2018-11-10T03:51:21.071Z,-1.2
2018-11-10T03:52:11.361Z,-1.2
2018-11-10T03:53:01.410Z,-1.3
2018-11-10T03:53:51.460Z,-1.3
2018-11-10T03:54:41.756Z,-1.2
2018-11-10T03:55:31.863Z,-1.2
2018-11-10T03:56:21.328Z,-1.3
2018-11-10T03:57:11.435Z,-1.3
2018-11-10T03:58:01.790Z,-1.3
2018-11-10T03:58:52.105Z,-1.3
2018-11-10T03:59:41.318Z,-1.3
2018-11-10T04:00:31.700Z,-1.3
2018-11-10T04:01:21.231Z,-1.3
2018-11-10T04:02:12.056Z,-1.3
2018-11-10T04:03:01.942Z,-1.4
2018-11-10T04:03:52.159Z,-1.4
2018-11-10T04:04:42.240Z,-1.4
2018-11-10T04:05:32.005Z,-1.4
2018-11-10T04:06:22.625Z,-1.4
2018-11-10T04:07:12.427Z,-1.4
2018-11-10T04:08:02.486Z,-1.4
2018-11-10T04:08:52.565Z,-1.4
2018-11-10T04:09:42.585Z,-1.4
2018-11-10T04:10:32.680Z,-1.5
2018-11-10T04:11:22.986Z,-1.5
2018-11-10T04:12:12.777Z,-1.5
2018-11-10T04:13:02.347Z,-1.6
2018-11-10T04:13:52.327Z,-1.6
2018-11-10T04:14:42.977Z,-1.6
2018-11-10T04:15:32.794Z,-1.6
2018-11-10T04:16:22.887Z,-1.6
2018-11-10T04:17:12.650Z,-1.6
2018-11-10T04:18:03.223Z,-1.6
2018-11-10T04:18:53.239Z,-1.7
2018-11-10T04:19:43.294Z,-1.7
2018-11-10T04:20:33.649Z,-1.7
2018-11-10T04:21:23.243Z,-1.7
2018-11-10T04:22:12.519Z,-1.8
2018-11-10T04:23:02.771Z,-1.8
2018-11-10T04:23:53.148Z,-1.8
2018-11-10T04:24:43.194Z,-1.8
2018-11-10T04:25:34.456Z,-1.8
2018-11-10T04:26:23.756Z,-1.8
2018-11-10T04:27:13.845Z,-1.8
2018-11-10T04:28:03.918Z,-1.9
2018-11-10T04:28:54.251Z,-1.9
2018-11-10T04:29:44.345Z,-1.9
2018-11-10T04:30:33.821Z,-1.9
2018-11-10T04:31:23.637Z,-1.9
2018-11-10T04:32:13.941Z,-1.9
2018-11-10T04:33:04.584Z,-1.9
2018-11-10T04:33:54.346Z,-2
2018-11-10T04:34:44.401Z,-2.1
2018-11-10T04:35:33.993Z,-2.1
2018-11-10T04:36:24.710Z,-2.1
2018-11-10T04:54:31.213Z,-2.4
2018-11-10T04:55:21.355Z,-2.3
2018-11-10T04:56:11.400Z,-2.4
2018-11-10T04:57:00.900Z,-2.4
2018-11-10T04:57:51.237Z,-2.4
2018-11-10T04:58:41.279Z,-2.4
2018-11-10T04:59:31.362Z,-2.4
2018-11-10T05:00:21.192Z,-2.4
2018-11-10T05:01:11.052Z,-2.3
2018-11-10T05:02:01.507Z,-2.4
2018-11-10T05:02:51.869Z,-2.4
2018-11-10T05:03:41.347Z,-2.4
2018-11-10T05:04:31.378Z,-2.4
2018-11-10T05:05:21.472Z,-2.4
2018-11-10T05:06:11.831Z,-2.4
2018-11-10T05:07:01.872Z,-2.4
2018-11-10T05:07:52.031Z,-2.4
2018-11-10T05:08:42.297Z,-2.4
2018-11-10T05:09:32.076Z,-2.4
2018-11-10T05:10:21.834Z,-2.4
2018-11-10T05:11:12.206Z,-2.4
2018-11-10T05:12:02.534Z,-2.4
2018-11-10T05:12:52.328Z,-2.4
2018-11-10T05:13:41.681Z,-2.4
2018-11-10T05:14:32.433Z,-2.4
2018-11-10T05:15:23.016Z,-2.4
2018-11-10T05:16:12.360Z,-2.4
2018-11-10T05:17:02.331Z,-2.4
2018-11-10T05:17:52.670Z,-2.4
2018-11-10T05:18:42.986Z,-2.4
2018-11-10T05:19:32.818Z,-2.4
2018-11-10T05:20:23.140Z,-2.4
2018-11-10T05:21:12.421Z,-2.4
2018-11-10T05:22:02.689Z,-2.4
2018-11-10T05:22:53.264Z,-2.3
2018-11-10T05:23:43.091Z,-2.4
2018-11-10T05:24:32.848Z,-2.4
2018-11-10T05:25:23.260Z,-2.3
2018-11-10T05:26:13.275Z,-2.3
2018-11-10T05:27:02.855Z,-2.3
2018-11-10T05:27:53.113Z,-2.3
2018-11-10T05:28:43.720Z,-2.3
2018-11-10T05:29:33.198Z,-2.3
2018-11-10T05:30:23.822Z,-2.3
2018-11-10T05:31:14.719Z,-2.2
2018-11-10T05:32:03.776Z,-2.2
2018-11-10T05:32:53.754Z,-2.2
2018-11-10T05:33:44.095Z,-2.1
2018-11-10T05:34:33.290Z,-2.1
2018-11-10T05:35:23.874Z,-2.1
2018-11-10T05:36:13.987Z,-2.1
2018-11-10T05:37:03.569Z,-2.1
2018-11-10T05:37:54.106Z,-2.1
2018-11-10T05:38:44.445Z,-2.1
2018-11-10T05:39:33.962Z,-2.1
2018-11-10T05:40:23.722Z,-2
2018-11-10T05:41:14.037Z,-1.9
2018-11-10T05:42:04.489Z,-1.9
2018-11-10T05:42:54.264Z,-1.9
2018-11-10T05:43:44.049Z,-1.8
2018-11-10T05:44:34.665Z,-1.8
2018-11-10T05:45:24.404Z,-1.7
2018-11-10T05:46:14.124Z,-1.6
2018-11-10T05:47:04.471Z,-1.6
2018-11-10T05:47:54.909Z,-1.5
2018-11-10T05:48:44.593Z,-1.4
2018-11-10T05:49:35.194Z,-1.4
2018-11-10T05:50:24.711Z,-1.3
2018-11-10T05:51:15.039Z,-1.2
2018-11-10T05:52:05.216Z,-1.1
2018-11-10T05:52:55.472Z,-1
2018-11-10T05:53:45.534Z,-0.9
2018-11-10T05:54:34.513Z,-0.8
2018-11-10T05:55:25.144Z,-0.8
2018-11-10T05:56:15.751Z,-0.6
2018-11-10T05:57:05.837Z,-0.4
2018-11-10T05:57:55.046Z,-0.4
2018-11-10T05:58:45.598Z,-0.2
2018-11-10T05:59:35.980Z,-0.1
2018-11-10T06:00:25.433Z,0.1
2018-11-10T06:01:15.438Z,0.2
2018-11-10T06:02:05.829Z,0.4
2018-11-10T06:02:55.668Z,0.6
2018-11-10T06:03:46.070Z,0.7
2018-11-10T06:04:35.728Z,0.9
2018-11-10T06:05:25.748Z,1.1
2018-11-10T06:06:16.135Z,1.2
2018-11-10T06:07:06.003Z,1.4
2018-11-10T06:07:55.758Z,1.6
2018-11-10T06:08:45.563Z,1.8
2018-11-10T06:09:37.055Z,1.9
2018-11-10T06:10:28.244Z,2.1
2018-11-10T06:11:16.787Z,2.3
2018-11-10T06:12:06.560Z,2.5
2018-11-10T06:12:56.613Z,2.8
2018-11-10T06:13:46.695Z,3.1
2018-11-10T06:14:36.537Z,3.6
2018-11-10T06:15:26.826Z,4.1
2018-11-10T06:16:16.559Z,4.6
2018-11-10T06:17:07.070Z,5.3
2018-11-10T06:17:56.682Z,5.9
2018-11-10T06:18:47.175Z,6.4
2018-11-10T06:19:36.532Z,7.1
2018-11-10T06:20:27.141Z,7.7
2018-11-10T06:21:17.260Z,8.3
2018-11-10T06:22:07.250Z,9
2018-11-10T06:22:56.847Z,9.6
2018-11-10T06:23:47.106Z,10.2
2018-11-10T06:24:37.735Z,10.8
2018-11-10T06:25:27.824Z,11.4
2018-11-10T06:26:17.299Z,12
2018-11-10T06:27:07.942Z,12.6
2018-11-10T06:27:57.672Z,13.2
2018-11-10T06:28:48.056Z,13.8
2018-11-10T06:29:37.515Z,14.3
2018-11-10T06:30:27.867Z,14.9
2018-11-10T06:31:17.452Z,15.5
2018-11-10T06:32:08.276Z,16
2018-11-10T06:32:58.351Z,16.6
2018-11-10T06:33:47.929Z,17.1
2018-11-10T06:34:38.270Z,17.7
2018-11-10T06:35:28.241Z,18.2
2018-11-10T06:36:18.594Z,18.8
2018-11-10T06:37:08.344Z,19.3
2018-11-10T06:37:58.429Z,19.8
2018-11-10T06:38:48.464Z,20.4
2018-11-10T06:39:38.541Z,20.9
2018-11-10T06:40:28.568Z,21.5
2018-11-10T06:41:18.403Z,22
2018-11-10T06:42:09.501Z,22.6
2018-11-10T06:42:58.573Z,23.1
2018-11-10T06:43:48.539Z,23.6
2018-11-10T06:44:38.891Z,24.1
2018-11-10T06:45:28.968Z,24.6
2018-11-10T06:46:18.721Z,25.1
2018-11-10T06:47:09.223Z,25.6
2018-11-10T06:47:59.126Z,26.2
2018-11-10T06:48:49.021Z,26.6
2018-11-10T06:49:39.250Z,27.1
2018-11-10T06:50:29.570Z,27.5
2018-11-10T06:51:19.398Z,28
2018-11-10T06:52:09.140Z,28.5
2018-11-10T06:53:00.065Z,29
2018-11-10T06:53:49.250Z,29.4
2018-11-10T06:54:39.615Z,29.9
2018-11-10T06:55:29.365Z,30.3
2018-11-10T06:56:19.437Z,30.8
2018-11-10T06:57:09.790Z,31.3
2018-11-10T06:57:59.554Z,31.8
2018-11-10T06:58:49.937Z,32.3
2018-11-10T06:59:40.223Z,32.7
2018-11-10T07:00:29.460Z,33.1
2018-11-10T07:01:19.541Z,33.6
2018-11-10T07:02:10.134Z,34.1
2018-11-10T07:02:59.707Z,34.6
2018-11-10T07:03:50.543Z,35
2018-11-10T07:04:39.859Z,35.6
2018-11-10T07:05:30.390Z,36
2018-11-10T07:06:20.435Z,36.5
2018-11-10T07:07:10.810Z,36.9
2018-11-10T07:08:00.824Z,37.4
2018-11-10T07:08:50.649Z,37.9
2018-11-10T07:09:41.400Z,38.3
2018-11-10T07:10:30.751Z,38.8
2018-11-10T07:11:20.819Z,39.3
2018-11-10T07:12:10.867Z,39.7
2018-11-10T07:13:01.194Z,40.1
2018-11-10T07:13:51.215Z,40.6
2018-11-10T07:14:40.477Z,41
2018-11-10T07:15:31.081Z,41.5
2018-11-10T07:16:20.954Z,41.9
2018-11-10T07:17:11.303Z,42.4
2018-11-10T07:18:01.516Z,42.9
2018-11-10T07:18:51.702Z,43.4
2018-11-10T07:19:41.007Z,43.9
2018-11-10T07:20:31.444Z,44.3
2018-11-10T07:21:21.506Z,44.8
2018-11-10T07:22:11.279Z,45.3
2018-11-10T07:23:01.737Z,45.8
2018-11-10T07:23:52.073Z,46.3
2018-11-10T07:24:41.273Z,46.7
2018-11-10T07:25:31.890Z,47.2
2018-11-10T07:26:22.160Z,47.7
2018-11-10T07:27:11.363Z,48.1
2018-11-10T07:28:02.022Z,48.6
2018-11-10T07:28:52.069Z,49.1
2018-11-10T07:29:41.827Z,49.4
2018-11-10T07:30:32.164Z,49.8
2018-11-10T07:31:22.250Z,50.3
2018-11-10T07:32:12.037Z,50.6
2018-11-10T07:33:02.376Z,51.1
2018-11-10T07:33:52.656Z,51.6
2018-11-10T07:34:42.446Z,52.1
2018-11-10T07:35:32.836Z,52.6
2018-11-10T07:36:22.587Z,53.1
2018-11-10T07:37:12.595Z,53.5
2018-11-10T07:38:02.432Z,54
2018-11-10T07:38:52.759Z,54.5
2018-11-10T07:39:43.108Z,55
2018-11-10T07:40:33.196Z,55.4
2018-11-10T07:41:22.970Z,55.9
2018-11-10T07:42:13.001Z,56.3
2018-11-10T07:43:03.162Z,56.7
2018-11-10T07:43:53.128Z,57.2
2018-11-10T07:44:43.720Z,58.2
2018-11-10T07:45:33.528Z,56.3
2018-11-10T07:46:23.318Z,54.3
2018-11-10T07:47:13.406Z,51.3
2018-11-10T07:48:03.218Z,44.4
2018-11-10T07:48:52.638Z,40.3
2018-11-10T07:49:43.839Z,38.3
2018-11-10T07:50:33.335Z,37.4
2018-11-10T07:51:24.565Z,37.4
2018-11-10T07:52:13.168Z,37.9
2018-11-10T07:53:04.097Z,38.8
2018-11-10T07:53:54.123Z,40
2018-11-10T07:54:43.918Z,41.4
2018-11-10T07:55:34.273Z,42.8
2018-11-10T07:56:24.018Z,44.1
2018-11-10T07:57:14.077Z,45.3
2018-11-10T07:58:04.440Z,46.4
2018-11-10T07:58:54.218Z,47.6
2018-11-10T07:59:44.013Z,48.8
2018-11-10T08:00:34.612Z,49.9
2018-11-10T08:01:24.152Z,51.1
2018-11-10T08:02:14.732Z,52.1
2018-11-10T08:03:04.805Z,53.1
2018-11-10T08:03:54.887Z,54.1
2018-11-10T08:04:44.350Z,55.1
2018-11-10T08:05:35.250Z,56
2018-11-10T08:06:24.460Z,56.8
2018-11-10T08:07:14.705Z,58.5
2018-11-10T08:08:05.187Z,58.6
2018-11-10T08:08:55.246Z,56.3
2018-11-10T08:09:45.004Z,54.8
2018-11-10T08:10:35.090Z,51.8
2018-11-10T08:11:25.125Z,48.4
2018-11-10T08:12:15.224Z,46.6
2018-11-10T08:13:05.332Z,46
2018-11-10T08:13:55.583Z,46.7
2018-11-10T08:14:45.328Z,47.9
2018-11-10T08:15:35.478Z,49.2
2018-11-10T08:16:25.105Z,50.4
2018-11-10T08:17:15.254Z,51.6
2018-11-10T08:18:05.593Z,52.9
2018-11-10T08:18:55.354Z,54
2018-11-10T08:19:46.047Z,55.2
2018-11-10T08:20:36.322Z,57.5
2018-11-10T08:21:25.562Z,57.5
2018-11-10T08:22:15.891Z,57.2
2018-11-10T08:23:05.686Z,56.9
2018-11-10T08:23:56.027Z,54.6
2018-11-10T08:24:46.169Z,51.8
2018-11-10T08:25:36.095Z,50.1
2018-11-10T08:26:25.919Z,50.4
2018-11-10T08:27:16.246Z,51.8
2018-11-10T08:28:06.341Z,53.1
2018-11-10T08:28:56.663Z,54.1
2018-11-10T08:29:46.161Z,54.3
2018-11-10T08:30:35.717Z,53.8
2018-11-10T08:31:27.046Z,53
2018-11-10T08:32:16.871Z,52.5
2018-11-10T08:33:05.800Z,52.4
2018-11-10T08:33:56.456Z,52.9
2018-11-10T08:34:46.791Z,53.6
2018-11-10T08:35:36.855Z,54.1
2018-11-10T08:36:26.352Z,54.3
2018-11-10T08:37:16.948Z,54.3
2018-11-10T08:38:06.763Z,54.2
2018-11-10T08:38:56.984Z,54.1
2018-11-10T08:39:47.170Z,54.1
2018-11-10T08:40:36.546Z,54.3
2018-11-10T08:41:26.985Z,54.5
2018-11-10T08:42:17.303Z,54.8
2018-11-10T08:43:07.448Z,55
2018-11-10T08:43:57.172Z,55.2
2018-11-10T08:44:47.260Z,55.3
2018-11-10T08:45:37.827Z,55.4
2018-11-10T08:46:27.940Z,55.4
2018-11-10T08:47:17.520Z,55.6
2018-11-10T08:48:07.503Z,55.6
2018-11-10T08:48:57.607Z,55.8
2018-11-10T08:49:47.892Z,56.1
2018-11-10T08:50:37.668Z,56.2
2018-11-10T08:51:27.518Z,56.3
2018-11-10T08:52:17.860Z,56.3
2018-11-10T09:08:56.762Z,58.3
2018-11-10T09:09:46.901Z,58.5
2018-11-10T09:10:36.804Z,58.5
2018-11-10T09:13:06.874Z,58.7
2018-11-10T09:13:57.401Z,58.8
2018-11-10T09:14:47.179Z,58.9
2018-11-10T09:15:37.159Z,59.1
2018-11-10T09:16:27.243Z,59.1
2018-11-10T09:17:17.820Z,59.1
2018-11-10T09:18:07.613Z,59.3
2018-11-10T09:18:57.423Z,59.4
2018-11-10T09:19:47.738Z,59.6
2018-11-10T09:20:37.490Z,59.9
2018-11-10T09:21:28.468Z,59.9
2018-11-10T09:22:17.936Z,59.9
2018-11-10T09:23:07.973Z,59.9
2018-11-10T09:23:57.356Z,60
2018-11-10T09:24:47.806Z,60.1
2018-11-10T09:25:38.155Z,60.2
2018-11-10T09:26:27.670Z,60.3
2018-11-10T09:27:18.305Z,60.4
2018-11-10T09:28:07.848Z,60.5
2018-11-10T09:28:58.405Z,60.5
2018-11-10T09:29:47.310Z,60.6
2018-11-10T09:30:37.859Z,60.6
2018-11-10T09:31:28.193Z,60.7
2018-11-10T09:32:18.095Z,60.8
2018-11-10T09:33:08.125Z,60.8
2018-11-10T09:33:59.012Z,60.9
2018-11-10T09:34:48.349Z,60.9
2018-11-10T09:35:38.891Z,61
2018-11-10T09:36:29.095Z,61.1
2018-11-10T09:37:18.707Z,61.1
2018-11-10T09:38:08.592Z,61.3
2018-11-10T09:38:58.342Z,61.5
2018-11-10T09:39:49.169Z,61.6
2018-11-10T09:40:38.904Z,61.6
2018-11-10T09:41:28.734Z,61.7
2018-11-10T09:42:19.307Z,61.8
2018-11-10T09:43:08.852Z,61.8
2018-11-10T09:43:59.205Z,61.9
2018-11-10T09:44:49.060Z,61.9
2018-11-10T09:45:38.887Z,62
2018-11-10T09:46:29.651Z,62.2
2018-11-10T09:47:19.434Z,62.1
2018-11-10T09:48:09.006Z,62.1
2018-11-10T09:48:59.276Z,62.1
2018-11-10T09:49:50.087Z,62.1
2018-11-10T09:50:40.218Z,62.1
2018-11-10T09:51:30.251Z,62.1
2018-11-10T09:52:19.789Z,62.2
2018-11-10T09:53:09.840Z,62.3
2018-11-10T09:53:59.734Z,62.3
2018-11-10T09:54:50.462Z,62.4
2018-11-10T09:55:40.324Z,62.4
2018-11-10T09:56:29.769Z,62.6
2018-11-10T09:57:20.164Z,62.6
2018-11-10T09:58:09.723Z,62.6
2018-11-10T09:58:59.680Z,62.4
2018-11-10T09:59:50.897Z,62.4
2018-11-10T10:00:40.357Z,62.4
2018-11-10T10:01:31.713Z,62.6
2018-11-10T10:02:23.687Z,62.6
2018-11-10T10:03:10.586Z,62.6
2018-11-10T10:04:00.940Z,62.8
2018-11-10T10:04:50.391Z,62.8
2018-11-10T10:05:40.743Z,62.9
2018-11-10T10:06:30.520Z,62.9
2018-11-10T10:07:20.863Z,62.9
2018-11-10T10:08:10.464Z,62.8
2018-11-10T10:09:01.702Z,62.8
2018-11-10T10:09:51.149Z,62.7
2018-11-10T10:10:41.095Z,62.8
2018-11-10T10:11:31.457Z,62.9
2018-11-10T10:12:21.268Z,62.8
2018-11-10T10:13:11.585Z,62.8
2018-11-10T10:14:01.372Z,62.9
2018-11-10T10:14:51.428Z,62.9
2018-11-10T10:15:41.465Z,62.8
2018-11-10T10:16:31.584Z,62.6
2018-11-10T10:17:21.603Z,62.6
2018-11-10T10:18:11.661Z,62.8
2018-11-10T10:19:01.737Z,63
2018-11-10T10:19:51.763Z,63.3
2018-11-10T10:20:41.659Z,63.4
2018-11-10T10:21:31.908Z,63.5
2018-11-10T10:22:22.235Z,63.6
2018-11-10T10:23:11.147Z,63.8
2018-11-10T10:24:02.083Z,63.6
2018-11-10T10:24:51.663Z,63.5
2018-11-10T10:25:42.452Z,63.4
2018-11-10T10:26:32.056Z,63.4
2018-11-10T10:27:21.546Z,63.3
2018-11-10T10:28:12.138Z,63.3
2018-11-10T10:29:03.577Z,63.4
2018-11-10T10:29:52.802Z,63.6
2018-11-10T10:30:41.697Z,63.7
2018-11-10T10:31:32.131Z,63.7
2018-11-10T10:32:22.184Z,63.8
2018-11-10T10:33:12.542Z,63.9
2018-11-10T10:34:04.043Z,63.9
2018-11-10T10:34:53.511Z,64.1
2018-11-10T10:35:43.619Z,64.1
2018-11-10T10:36:32.295Z,64.1
2018-11-10T10:37:23.365Z,64
2018-11-10T10:38:13.391Z,64.1
2018-11-10T10:39:03.176Z,64.2
2018-11-10T10:39:52.436Z,64.3
2018-11-10T10:40:43.013Z,64.4
2018-11-10T10:41:33.348Z,64.3
2018-11-10T10:42:23.412Z,64.1
2018-11-10T10:43:13.564Z,64
2018-11-10T10:44:03.044Z,64.1
2018-11-10T10:44:53.300Z,64.1
2018-11-10T10:45:43.636Z,64.3
2018-11-10T10:46:33.119Z,64.6
2018-11-10T10:47:23.550Z,64.5
2018-11-10T10:48:13.038Z,64.2
2018-11-10T10:49:03.643Z,64.2
2018-11-10T10:49:53.733Z,64.3
2018-11-10T10:50:43.518Z,64.6
2018-11-10T10:51:33.797Z,64.8
2018-11-10T10:52:23.815Z,64.8
2018-11-10T10:53:14.466Z,64.9
2018-11-10T10:54:04.223Z,65
2018-11-10T10:54:54.575Z,65.1
2018-11-10T10:55:44.821Z,64.9
2018-11-10T10:56:34.803Z,64.8
2018-11-10T10:57:24.477Z,64.8
2018-11-10T10:58:14.252Z,64.8
2018-11-10T10:59:04.618Z,64.8
2018-11-10T10:59:54.628Z,64.9
2018-11-10T11:00:43.960Z,65.1
2018-11-10T11:01:35.329Z,65.2
2018-11-10T11:02:24.083Z,65.3
2018-11-10T11:03:14.777Z,65.4
2018-11-10T11:04:04.968Z,65.4
2018-11-10T11:04:55.052Z,65.3
2018-11-10T11:05:45.092Z,65.2
2018-11-10T11:06:35.405Z,65
2018-11-10T11:07:25.264Z,64.8
2018-11-10T11:08:14.819Z,64.8
2018-11-10T11:09:05.275Z,64.8
2018-11-10T11:09:55.627Z,64.8
2018-11-10T11:10:45.174Z,64.8
2018-11-10T11:11:35.288Z,65
2018-11-10T11:12:24.987Z,65.1
2018-11-10T11:13:15.422Z,65.1
2018-11-10T11:14:05.414Z,65
2018-11-10T11:14:56.190Z,65.1
2018-11-10T11:15:46.797Z,65.1
2018-11-10T11:16:36.100Z,65.1
2018-11-10T11:17:25.647Z,65.1
2018-11-10T11:18:15.514Z,65
2018-11-10T11:19:05.757Z,64.9
2018-11-10T11:19:55.806Z,64.9
2018-11-10T11:20:45.884Z,64.9
2018-11-10T11:21:36.513Z,64.9
2018-11-10T11:22:26.010Z,64.8
2018-11-10T11:23:16.656Z,64.8
2018-11-10T11:24:06.106Z,64.8
2018-11-10T11:24:56.012Z,64.9
2018-11-10T11:25:45.661Z,64.8
2018-11-10T11:26:36.121Z,64.5
2018-11-10T11:27:26.451Z,64.4
2018-11-10T11:28:16.431Z,64.4
2018-11-10T11:29:06.338Z,64.3
2018-11-10T11:29:57.118Z,64.2
2018-11-10T11:30:46.150Z,64.1
2018-11-10T11:31:36.942Z,64
2018-11-10T11:32:26.828Z,64.1
2018-11-10T11:33:17.104Z,64.1
2018-11-10T11:34:06.836Z,63.9
2018-11-10T11:34:57.498Z,63.8
2018-11-10T11:35:46.771Z,63.6
2018-11-10T11:36:36.840Z,63.4
2018-11-10T11:37:27.637Z,63.1
2018-11-10T11:38:17.151Z,62.7
2018-11-10T11:39:07.464Z,62.4
2018-11-10T11:39:56.789Z,62.3
2018-11-10T11:40:47.332Z,62.1
2018-11-10T11:41:37.723Z,62.1
2018-11-10T11:42:28.272Z,62.1
2018-11-10T11:43:17.313Z,62
2018-11-10T11:44:07.285Z,61.9
2018-11-10T11:44:57.915Z,61.8
2018-11-10T11:45:48.093Z,61.8
2018-11-10T11:46:38.372Z,61.7
2018-11-10T11:47:28.377Z,61.7
2018-11-10T11:48:17.975Z,61.6
2018-11-10T11:49:08.730Z,61.4
2018-11-10T11:49:58.612Z,61.1
2018-11-10T11:50:48.384Z,60.9
2018-11-10T11:51:38.400Z,60.6
2018-11-10T11:52:28.465Z,60.3
2018-11-10T11:53:18.807Z,60.3
2018-11-10T11:54:08.312Z,60.3
2018-11-10T11:54:58.613Z,60.3
2018-11-10T11:55:48.704Z,60.3
2018-11-10T11:56:38.752Z,60.3
2018-11-10T11:57:28.969Z,60.1
2018-11-10T11:58:19.998Z,59.9
2018-11-10T11:59:09.214Z,60
2018-11-10T11:59:58.669Z,60.1
2018-11-10T12:00:49.366Z,59.9
2018-11-10T12:01:39.084Z,59.7
2018-11-10T12:02:29.469Z,59.5
2018-11-10T12:03:18.759Z,59.5
2018-11-10T12:04:09.247Z,59.6
2018-11-10T12:04:59.102Z,59.6
2018-11-10T12:05:49.151Z,59.7
2018-11-10T12:06:39.773Z,59.5
2018-11-10T12:07:29.551Z,59.3
2018-11-10T12:08:19.306Z,59.1
2018-11-10T12:09:09.649Z,59
2018-11-10T12:10:00.039Z,59
2018-11-10T12:10:49.696Z,59.2
2018-11-10T12:11:39.365Z,59.1
2018-11-10T12:12:30.210Z,59
2018-11-10T12:13:19.967Z,59